Flight Track Log - Related Links

Times and Time Zones

All times are in EDT time to prevent confusion due to time zone crossing. See the EGF2982 flight status page for this flight to view local times or setup timezone preferences in your user account.

Time Position Orientation Groundspeed Altitude Reporting Facility
EDT Latitude Longitude Course Direction KTS MPH feet Rate Location/Type
Wed 19:28:10 32.8667 -97.0500 149° Southeast 160 184 1,800  Level Dallas TRACON
Wed 19:29:05 32.8333 -97.0667 203° Southwest 196 226 3,300 2,141 Climbing Dallas TRACON
Wed 19:30:00 32.6598 -97.1424 157° South  Level Estimated
Wed 19:31:00 32.5808 -97.1771 214° Southwest  Level Estimated
Wed 19:31:15 32.6994 -97.0975 191° South 219 252 8,400  Level Fort Center
Wed 19:32:00 32.5017 -97.2117 205° Southwest  Level Estimated
Wed 19:32:15 32.6450 -97.1075 189° South 219 252 10,100  Level Fort Center
Wed 19:33:00 32.4293 -97.1607 149° Southeast  Level FlightAware
Wed 19:33:15 32.5678 -97.1200 188° South 243 280 11,300  Level Fort Center
Wed 19:34:15 32.4969 -97.1325 188° South 279 321 12,200 1,000 Climbing Fort Center
Wed 19:35:15 32.4094 -97.1722 201° Southwest 300 345 13,300 1,200 Climbing Fort Center
Wed 19:36:15 32.3447 -97.2289 216° Southwest 316 364 14,600 1,350 Climbing Fort Center
Wed 19:37:15 32.2717 -97.3003 220° Southwest 323 372 16,000 700 Climbing Fort Center
Wed 19:38:15 32.2028 -97.3594 216° Southwest 323 372 16,000  Level Fort Center
Wed 19:39:15 32.1236 -97.4331 218° Southwest 329 379 16,000  Level Fort Center
Wed 19:40:15 32.0589 -97.4919 218° Southwest 329 379 16,000  Level Fort Center
Wed 19:41:15 31.9794 -97.5628 217° Southwest 329 379 16,000 -229 Level Fort Center
Wed 19:42:00 31.9208 -97.6189 219° Southwest 332 382 15,600 -500 Descending Fort Center
Wed 19:42:15 31.9125 -97.6264 217° Southwest 334 384 15,500 -982 Descending Fort Center
Wed 19:42:55 31.8539 -97.6750 215° Southwest 339 390 14,700 -1,100 Descending Fort Center
Wed 19:43:15 31.8308 -97.6969 219° Southwest 334 384 14,400 -1,082 Descending Fort Center
Wed 19:43:56 31.7808 -97.7408 217° Southwest 316 364 13,600 -1,100 Descending Fort Center
Wed 19:44:15 31.7597 -97.7578 214° Southwest 329 379 13,300 -600 Descending Fort Center
Wed 19:44:56 31.7158 -97.7992 219° Southwest 301 346 13,000 -600 Descending Fort Center
Wed 19:45:15 31.6969 -97.8161 217° Southwest 315 362 12,700 -1,377 Descending Fort Center
Wed 19:45:57 31.6550 -97.8528 217° Southwest 255 293 11,600 -1,500 Descending Fort Center
Wed 19:46:15 31.6383 -97.8672 216° Southwest 287 330 11,200 -1,846 Descending Fort Center
Wed 19:47:15 31.5817 -97.9156 216° Southwest 266 306 9,200 -1,806 Descending Fort Center
Wed 19:47:58 31.5294 -97.9228 187° South 267 307 8,100 -1,400 Descending Fort Center
Wed 19:48:15 31.5067 -97.9225 179° South 253 291 7,800 -984 Descending Fort Center
Wed 19:48:59 31.4647 -97.9272 185° South 234 269 7,100 -1,200 Descending Fort Center
Wed 19:49:15 31.4439 -97.9294 185° South 253 291 6,600 -1,455 Descending Fort Center
Wed 19:50:05 31.3958 -97.9367 187° South 217 250 5,500 -1,459 Descending Fort Center
Wed 19:51:06 31.3333 -97.9436 185° South 210 242 3,900 -1,230 Descending Fort Center
Wed 19:52:07 31.2811 -97.9358 173° South 205 236 3,000 -446 Descending Fort Center
Wed 19:53:07 31.2247 -97.9089 158° South 201 231 3,000 -47 Level Fort Center
Wed 19:54:14 31.1706 -97.8819 157° South 192 221 2,900 -375 Descending Fort Center
Wed 19:55:15 31.1372 -97.8647 156° South 173 199 2,200 -645 Descending Fort Center
Wed 19:56:15 31.1039 -97.8475 156° South 143 165 1,600 -600 Descending Fort Center

Login

Don't have an account? Register now (free) for customized features, flight alerts, and more!